Decoded Metar for LFLU (VALENCE in FRANCE) (IATA:VAF) | Meteo·Mobile Aviation Weather
aviador You're here:

LFLU Decoded Metar

VALENCE in FRANCE
Report Time2019-02-17 07:30:00
UTC Time2019-02-17 07:46:03
Flight Rules vfr VFR
Wind180° at 07 kt
W.Decomp.*RWY 19: 6.9 kt HW 1.2 kt LCW
W.Rank180° ranks 10
Current wind is below 180° avg. (8.6)
Visibility9999 m
Phenomena:N/A
Clouds:N/A
Expected CloudBase > 800 ft AGL from Temp-Dew spread
CeilingNone
Temp03°C
Dew Point01°C (87% RH)
AAT-1.3°C
QNH1027 hPa
Raw Report
METAR LFLU 170730Z AUTO 18007KT CAVOK 03/01 Q1027=

Extra information for LFLU:More info

Metar Taf Metar & Taf Last 4 Metars F.Rules Stats Wind Profile Meteogram Temp Stats Airport Information Weather charts Add Link Nearby VenuesMetar ALERT Operation Metar Decoded Social comments